Time;durP1;ratioP1;P1;durP2;ratioP2;P2;SDS_P1;SDS_P2;PMS_P1;PMS_P2;Temp;Humidity;BMP_temperature;BMP_pressure;BME280_temperature;BME280_humidity;BME280_pressure;Samples;Min_cycle;Max_cycle;Signal;HPM_P1;HPM_P2
2023/07/02 00:00:36;;;;;;;25.55;10.57;;;;;;;12.12;92.76;100088.16;6151149;23;20087;-92
2023/07/02 00:03:02;;;;;;;28.77;11.18;;;;;;;12.20;92.47;100078.94;6149681;23;20428;-92
2023/07/02 00:05:27;;;;;;;23.85;10.30;;;;;;;12.05;92.87;100081.78;6151269;23;20055;-92
2023/07/02 00:07:53;;;;;;;26.45;10.50;;;;;;;12.04;92.62;100083.53;6253583;22;20501;-92
2023/07/02 00:10:18;;;;;;;26.10;11.05;;;;;;;12.13;90.86;100079.47;6149761;23;20054;-91
2023/07/02 00:12:44;;;;;;;31.38;10.90;;;;;;;12.08;91.85;100076.38;6150585;23;20005;-93
2023/07/02 00:15:10;;;;;;;27.75;11.48;;;;;;;11.94;93.04;100083.31;6151148;23;20066;-92
2023/07/02 00:17:39;;;;;;;29.13;11.20;;;;;;;11.93;94.70;100078.28;6150600;22;20001;-93
2023/07/02 00:20:13;;;;;;;30.83;11.15;;;;;;;11.86;96.89;100077.84;6253891;22;20025;-92
2023/07/02 00:22:41;;;;;;;26.50;11.00;;;;;;;11.75;98.00;100076.00;6150546;22;20111;-92
2023/07/02 00:25:07;;;;;;;32.22;11.15;;;;;;;11.76;97.89;100081.97;6151171;23;20535;-93
2023/07/02 00:27:33;;;;;;;26.85;10.35;;;;;;;11.70;97.53;100082.38;6253550;22;20306;-93
2023/07/02 00:29:59;;;;;;;27.50;10.98;;;;;;;11.66;97.71;100076.59;6253652;22;20012;-93
2023/07/02 00:32:24;;;;;;;26.63;11.55;;;;;;;11.60;96.55;100078.78;6150735;23;20025;-93
2023/07/02 00:34:50;;;;;;;21.85;10.23;;;;;;;11.52;98.28;100080.13;6150644;23;20010;-92
2023/07/02 00:37:15;;;;;;;22.52;9.88;;;;;;;11.51;98.11;100077.63;6253249;22;20032;-92
2023/07/02 00:39:40;;;;;;;29.08;10.73;;;;;;;11.64;96.52;100082.81;6150633;23;19998;-92
2023/07/02 00:42:08;;;;;;;25.38;8.90;;;;;;;11.61;94.20;100089.03;6252301;22;20009;-93
2023/07/02 00:44:33;;;;;;;29.98;9.70;;;;;;;11.45;94.99;100093.56;6150293;23;20006;-91
2023/07/02 00:46:59;;;;;;;24.23;10.15;;;;;;;11.52;96.27;100090.47;6253782;22;20077;-93
2023/07/02 00:49:25;;;;;;;26.23;8.35;;;;;;;11.44;96.04;100082.41;6253882;22;20037;-90
2023/07/02 00:51:50;;;;;;;28.23;8.93;;;;;;;11.51;95.02;100093.97;6151002;23;20447;-92
2023/07/02 00:54:16;;;;;;;27.60;9.73;;;;;;;11.47;96.22;100092.53;6150970;23;20080;-93
2023/07/02 00:56:41;;;;;;;22.33;9.70;;;;;;;11.32;97.46;100093.53;6253757;22;20066;-93
2023/07/02 00:59:06;;;;;;;25.08;8.77;;;;;;;11.48;96.73;100096.75;6150179;23;20009;-92
2023/07/02 01:01:37;;;;;;;27.67;8.75;;;;;;;11.48;94.21;100095.94;6150214;23;20009;-92
2023/07/02 01:04:05;;;;;;;25.70;9.02;;;;;;;11.39;96.58;100097.38;6251360;22;20463;-93
2023/07/02 01:06:35;;;;;;;25.48;8.95;;;;;;;11.39;97.13;100101.69;6149995;23;20306;-92
2023/07/02 01:09:03;;;;;;;23.95;8.65;;;;;;;11.34;98.52;100099.44;6253572;22;20440;-92
2023/07/02 01:11:31;;;;;;;21.98;8.95;;;;;;;11.28;98.62;100097.25;6150819;22;20009;-93
2023/07/02 01:14:02;;;;;;;30.27;8.75;;;;;;;11.24;99.65;100106.13;6150980;23;20009;-92
2023/07/02 01:16:30;;;;;;;37.53;8.30;;;;;;;11.24;99.82;100095.78;6253579;22;20037;-94
2023/07/02 01:18:56;;;;;;;22.80;8.55;;;;;;;11.17;99.56;100107.44;6150950;23;20001;-92
2023/07/02 01:21:24;;;;;;;26.38;8.63;;;;;;;11.09;100.00;100111.34;6253442;22;20013;-91
2023/07/02 01:23:49;;;;;;;22.80;8.43;;;;;;;11.07;100.00;100115.81;6253616;22;20100;-92
2023/07/02 01:26:15;;;;;;;20.65;8.70;;;;;;;11.02;100.00;100107.53;6253555;22;20474;-93
2023/07/02 01:28:41;;;;;;;25.20;9.15;;;;;;;11.05;100.00;100115.09;6150922;23;20336;-91
2023/07/02 01:31:07;;;;;;;18.02;8.32;;;;;;;11.09;100.00;100115.69;6151139;23;20009;-93
2023/07/02 01:33:32;;;;;;;25.80;9.32;;;;;;;11.22;98.87;100116.56;6151303;23;20480;-93
2023/07/02 01:35:58;;;;;;;22.88;7.72;;;;;;;11.32;96.36;100121.97;6151922;23;20036;-93
2023/07/02 01:38:23;;;;;;;20.42;8.00;;;;;;;11.25;95.90;100118.13;6150506;23;20084;-93
2023/07/02 01:40:49;;;;;;;23.83;8.68;;;;;;;11.12;97.96;100111.19;6150212;23;20028;-92
2023/07/02 01:43:14;;;;;;;26.30;8.00;;;;;;;11.12;99.64;100115.53;6149545;23;20069;-93
2023/07/02 01:45:42;;;;;;;19.83;7.43;;;;;;;11.10;100.00;100120.78;6150506;23;20012;-91
2023/07/02 01:48:07;;;;;;;29.50;8.35;;;;;;;10.99;100.00;100112.88;6150446;23;20451;-92
2023/07/02 01:50:32;;;;;;;23.23;8.15;;;;;;;10.96;100.00;100123.41;6252865;22;20001;-91
2023/07/02 01:52:58;;;;;;;24.27;8.23;;;;;;;10.91;100.00;100120.31;6150711;23;20037;-92
2023/07/02 01:55:23;;;;;;;16.88;7.55;;;;;;;10.79;100.00;100126.25;6150485;23;20001;-91
2023/07/02 01:57:49;;;;;;;22.05;8.10;;;;;;;10.69;100.00;100119.06;6150081;23;20029;-92
2023/07/02 02:00:15;;;;;;;24.85;7.30;;;;;;;10.75;100.00;100127.34;6150919;23;20073;-93
2023/07/02 02:02:41;;;;;;;30.25;8.63;;;;;;;10.63;100.00;100127.22;6255238;22;20001;-91
2023/07/02 02:05:08;;;;;;;22.33;8.25;;;;;;;10.71;100.00;100113.84;6151546;23;20021;-90
2023/07/02 02:07:35;;;;;;;23.25;8.75;;;;;;;10.65;100.00;100122.78;6151677;22;20006;-90
2023/07/02 02:10:01;;;;;;;23.85;8.02;;;;;;;10.85;100.00;100120.69;6151425;23;20009;-93
2023/07/02 02:12:28;;;;;;;23.85;8.68;;;;;;;10.74;99.45;100123.13;6151529;23;20006;-91
2023/07/02 02:14:53;;;;;;;23.48;7.55;;;;;;;10.64;100.00;100118.53;6151263;23;20010;-92
2023/07/02 02:17:19;;;;;;;19.90;6.90;;;;;;;10.63;100.00;100127.22;6151565;23;20055;-91
2023/07/02 02:19:44;;;;;;;23.13;6.78;;;;;;;10.60;100.00;100121.41;6151594;23;20332;-91
2023/07/02 02:22:10;;;;;;;28.25;8.70;;;;;;;10.60;100.00;100124.00;6150967;23;20417;-92
2023/07/02 02:24:35;;;;;;;21.23;6.57;;;;;;;10.51;100.00;100120.25;6151440;23;20337;-92
2023/07/02 02:27:01;;;;;;;24.67;6.53;;;;;;;10.49;100.00;100119.50;6151770;23;20425;-91
2023/07/02 02:29:26;;;;;;;17.95;6.78;;;;;;;10.32;100.00;100123.13;6151050;23;20024;-93
2023/07/02 02:31:51;;;;;;;17.30;6.30;;;;;;;10.28;100.00;100122.47;6151351;23;20081;-92
2023/07/02 02:34:17;;;;;;;19.80;6.63;;;;;;;10.29;100.00;100128.47;6254759;22;20009;-93
2023/07/02 02:36:42;;;;;;;23.55;6.72;;;;;;;10.18;100.00;100131.66;6151093;23;20318;-91
2023/07/02 02:39:07;;;;;;;19.17;6.53;;;;;;;10.23;100.00;100128.81;6151313;23;20001;-92
2023/07/02 02:41:33;;;;;;;20.40;7.05;;;;;;;10.23;100.00;100124.47;6254543;22;20001;-91
2023/07/02 02:43:58;;;;;;;27.30;7.03;;;;;;;10.40;100.00;100128.63;6151166;23;20041;-92
2023/07/02 02:46:24;;;;;;;18.20;7.20;;;;;;;10.41;100.00;100130.31;6151557;23;20383;-91
2023/07/02 02:48:50;;;;;;;23.80;6.68;;;;;;;10.25;100.00;100132.13;6150218;23;20053;-91
2023/07/02 02:51:15;;;;;;;20.58;6.38;;;;;;;10.24;100.00;100127.88;6150713;23;20566;-91
2023/07/02 02:53:41;;;;;;;19.48;6.55;;;;;;;10.15;100.00;100131.88;6151582;23;20002;-91
2023/07/02 02:56:06;;;;;;;23.08;6.22;;;;;;;10.20;100.00;100123.84;6151081;23;20436;-93
2023/07/02 02:58:32;;;;;;;15.02;5.43;;;;;;;10.20;100.00;100134.16;6255048;22;20024;-92
2023/07/02 03:00:57;;;;;;;16.23;5.50;;;;;;;10.14;100.00;100124.22;6253799;22;20040;-92
2023/07/02 03:03:24;;;;;;;18.50;5.90;;;;;;;10.14;100.00;100134.53;6151455;23;20455;-93
2023/07/02 03:05:50;;;;;;;20.50;6.03;;;;;;;10.11;100.00;100132.97;6150927;23;20006;-92
2023/07/02 03:08:15;;;;;;;14.63;5.25;;;;;;;10.11;100.00;100140.69;6150901;22;20033;-93
2023/07/02 03:10:41;;;;;;;13.57;5.40;;;;;;;10.11;100.00;100138.13;6253702;22;20040;-92
2023/07/02 03:13:07;;;;;;;18.83;6.15;;;;;;;10.11;100.00;100134.72;6254957;22;20022;-92
2023/07/02 03:15:32;;;;;;;21.77;8.23;;;;;;;10.10;99.53;100133.06;6254474;22;20010;-92
2023/07/02 03:17:58;;;;;;;17.77;5.93;;;;;;;10.13;98.99;100136.28;6151398;23;20002;-92
2023/07/02 03:20:23;;;;;;;21.33;6.72;;;;;;;10.01;100.00;100139.59;6150645;23;20012;-92
2023/07/02 03:22:49;;;;;;;20.88;6.05;;;;;;;10.01;100.00;100140.41;6254207;22;20014;-92
2023/07/02 03:25:14;;;;;;;17.88;5.20;;;;;;;9.91;100.00;100141.06;6151472;23;20006;-92
2023/07/02 03:27:40;;;;;;;16.17;5.38;;;;;;;9.93;100.00;100137.47;6254344;22;20531;-92
2023/07/02 03:30:06;;;;;;;17.52;6.75;;;;;;;9.90;100.00;100141.97;6253731;22;20327;-92
2023/07/02 03:32:31;;;;;;;17.10;6.30;;;;;;;9.92;100.00;100145.28;6150717;23;20006;-92
2023/07/02 03:34:57;;;;;;;15.85;5.97;;;;;;;9.85;100.00;100149.97;6151163;23;20452;-93
2023/07/02 03:37:22;;;;;;;21.20;6.80;;;;;;;9.89;100.00;100146.31;6150995;23;20029;-92
2023/07/02 03:39:47;;;;;;;16.55;5.53;;;;;;;9.85;100.00;100148.25;6150711;23;20060;-92
2023/07/02 03:42:13;;;;;;;16.27;5.32;;;;;;;9.85;100.00;100161.13;6254028;22;20009;-92
2023/07/02 03:44:38;;;;;;;19.48;6.30;;;;;;;10.10;100.00;100148.53;6150907;23;20318;-91
2023/07/02 03:47:05;;;;;;;21.30;5.78;;;;;;;10.03;100.00;100148.06;6253609;22;20016;-92
2023/07/02 03:49:30;;;;;;;16.73;5.80;;;;;;;10.03;100.00;100148.06;6254180;22;20006;-92
2023/07/02 03:51:55;;;;;;;16.30;5.40;;;;;;;9.94;100.00;100146.03;6150999;23;20033;-91
2023/07/02 03:54:21;;;;;;;17.70;5.53;;;;;;;9.89;100.00;100145.47;6150910;23;20006;-91
2023/07/02 03:56:46;;;;;;;15.93;6.03;;;;;;;9.86;100.00;100151.66;6151284;23;20052;-92
2023/07/02 03:59:11;;;;;;;21.85;6.57;;;;;;;9.91;100.00;100151.38;6151265;23;20195;-94
2023/07/02 04:01:37;;;;;;;21.65;5.60;;;;;;;9.94;100.00;100158.94;6150793;23;20009;-92
2023/07/02 04:04:02;;;;;;;14.90;5.45;;;;;;;9.96;100.00;100164.81;6150926;23;20063;-93
2023/07/02 04:06:28;;;;;;;14.82;5.80;;;;;;;9.97;100.00;100163.91;6151418;23;20412;-93
2023/07/02 04:08:53;;;;;;;18.30;5.47;;;;;;;10.09;100.00;100168.31;6150952;22;20001;-93
2023/07/02 04:11:18;;;;;;;20.42;5.82;;;;;;;10.18;100.00;100170.34;6150554;23;20503;-93
2023/07/02 04:13:44;;;;;;;17.33;5.95;;;;;;;10.18;100.00;100172.09;6151681;22;20228;-93
2023/07/02 04:16:09;;;;;;;16.20;5.45;;;;;;;10.20;100.00;100171.09;6150541;23;20412;-93
2023/07/02 04:18:35;;;;;;;16.55;5.05;;;;;;;10.34;100.00;100172.03;6151074;23;20032;-92
2023/07/02 04:21:02;;;;;;;17.05;5.80;;;;;;;10.54;100.00;100163.09;6253564;22;20010;-93
2023/07/02 04:23:28;;;;;;;20.67;5.95;;;;;;;10.56;100.00;100162.06;6253972;22;20337;-93
2023/07/02 04:25:53;;;;;;;22.20;6.00;;;;;;;10.52;100.00;100170.91;6253944;22;20017;-92
2023/07/02 04:28:19;;;;;;;16.20;5.10;;;;;;;10.55;100.00;100165.56;6150630;23;20010;-93
2023/07/02 04:30:44;;;;;;;18.60;5.90;;;;;;;10.58;100.00;100175.69;6252851;22;20440;-93
2023/07/02 04:33:13;;;;;;;17.25;5.30;;;;;;;10.61;100.00;100174.69;6151279;23;20485;-92
2023/07/02 04:35:39;;;;;;;20.40;5.85;;;;;;;10.64;100.00;100174.50;6150789;23;20002;-92
2023/07/02 04:38:05;;;;;;;11.60;5.47;;;;;;;10.62;100.00;100179.75;6150806;23;20006;-93
2023/07/02 04:40:30;;;;;;;20.25;6.88;;;;;;;10.65;100.00;100184.72;6150663;23;20035;-92
2023/07/02 04:42:57;;;;;;;16.05;4.63;;;;;;;10.70;100.00;100181.84;6150749;23;20009;-92
2023/07/02 04:45:24;;;;;;;22.02;6.05;;;;;;;10.76;100.00;100180.66;6150377;23;20047;-93
2023/07/02 04:47:50;;;;;;;18.83;5.20;;;;;;;10.81;100.00;100181.19;6149690;22;20415;-93
2023/07/02 04:50:17;;;;;;;23.33;6.10;;;;;;;10.94;100.00;100176.91;6150514;23;20005;-92
2023/07/02 04:52:42;;;;;;;20.42;5.95;;;;;;;11.06;100.00;100181.28;6150717;23;20459;-92
2023/07/02 04:55:08;;;;;;;13.98;5.43;;;;;;;11.16;100.00;100180.72;6151001;23;19997;-91
2023/07/02 04:57:34;;;;;;;16.10;5.65;;;;;;;11.16;100.00;100176.38;6150672;23;20006;-91
2023/07/02 04:59:59;;;;;;;17.92;5.55;;;;;;;11.20;100.00;100171.84;6150248;23;20055;-91
2023/07/02 05:02:24;;;;;;;16.90;5.97;;;;;;;11.22;100.00;100176.00;6150403;23;19998;-92
2023/07/02 05:04:50;;;;;;;16.50;6.40;;;;;;;11.26;100.00;100181.78;6150763;23;20055;-91
2023/07/02 05:07:18;;;;;;;20.92;6.22;;;;;;;11.23;100.00;100182.81;6150147;22;20393;-90
2023/07/02 05:09:44;;;;;;;15.25;5.40;;;;;;;11.18;100.00;100184.03;6151891;23;20076;-92
2023/07/02 05:12:09;;;;;;;18.48;5.65;;;;;;;11.14;100.00;100175.63;6152584;23;20431;-91
2023/07/02 05:14:34;;;;;;;16.13;5.45;;;;;;;11.13;100.00;100187.72;6152543;23;20001;-90
2023/07/02 05:17:00;;;;;;;16.35;5.45;;;;;;;11.13;100.00;100187.72;6152571;23;20008;-92
2023/07/02 05:19:25;;;;;;;18.38;5.70;;;;;;;11.19;100.00;100176.16;6153169;23;20002;-92
2023/07/02 05:21:51;;;;;;;18.27;5.75;;;;;;;11.19;100.00;100185.69;6154448;23;20006;-92
2023/07/02 05:24:16;;;;;;;20.17;5.28;;;;;;;11.28;100.00;100185.91;6152684;23;20083;-91
2023/07/02 05:26:42;;;;;;;20.63;5.53;;;;;;;11.27;100.00;100186.03;6153822;23;20002;-92
2023/07/02 05:29:07;;;;;;;17.00;5.70;;;;;;;11.33;100.00;100185.63;6159803;23;20012;-90
2023/07/02 05:31:34;;;;;;;16.30;4.82;;;;;;;11.35;100.00;100189.75;6276100;22;20040;-93
2023/07/02 05:33:59;;;;;;;17.27;5.57;;;;;;;11.42;100.00;100191.97;6174626;23;20016;-91
2023/07/02 05:36:25;;;;;;;13.65;4.95;;;;;;;11.46;100.00;100194.25;6278143;22;19994;-91
2023/07/02 05:38:50;;;;;;;17.38;5.93;;;;;;;11.48;100.00;100200.13;6174593;23;20001;-91
2023/07/02 05:41:20;;;;;;;13.70;4.38;;;;;;;11.52;100.00;100198.19;6172756;23;20017;-94
2023/07/02 05:43:45;;;;;;;12.57;4.93;;;;;;;11.54;100.00;100201.50;6173418;23;20006;-91
2023/07/02 05:46:12;;;;;;;15.43;5.25;;;;;;;11.58;100.00;100197.75;6174219;23;20320;-91
2023/07/02 05:48:37;;;;;;;16.25;5.38;;;;;;;11.64;100.00;100191.38;6174912;23;20064;-91
2023/07/02 05:51:03;;;;;;;15.50;5.40;;;;;;;11.74;100.00;100197.59;6268527;22;20406;-91
2023/07/02 05:53:28;;;;;;;16.88;5.43;;;;;;;11.83;100.00;100194.41;6271238;22;20017;-91
2023/07/02 05:55:54;;;;;;;20.45;5.88;;;;;;;12.02;100.00;100200.97;6173987;23;19990;-92
2023/07/02 05:58:19;;;;;;;20.15;5.90;;;;;;;12.08;100.00;100206.56;6171256;23;20028;-93
2023/07/02 06:00:49;;;;;;;17.00;6.30;;;;;;;12.18;100.00;100204.16;6275993;22;20085;-91
2023/07/02 06:03:19;;;;;;;13.63;4.80;;;;;;;12.29;100.00;100214.63;6166989;23;20455;-89
2023/07/02 06:05:45;;;;;;;19.55;5.88;;;;;;;12.41;100.00;100211.19;6169305;23;20005;-91
2023/07/02 06:08:11;;;;;;;16.92;5.28;;;;;;;12.59;100.00;100213.44;6274773;22;19994;-89
2023/07/02 06:10:36;;;;;;;21.15;5.80;;;;;;;12.75;100.00;100219.22;6166406;23;20038;-92
2023/07/02 06:13:02;;;;;;;16.38;5.25;;;;;;;13.12;100.00;100208.00;6171363;23;20010;-92
2023/07/02 06:15:27;;;;;;;19.08;5.95;;;;;;;16.21;81.60;100213.41;6163495;23;20009;-94
2023/07/02 06:17:52;;;;;;;21.58;6.10;;;;;;;18.55;66.10;100219.50;6166707;23;20041;-91
2023/07/02 06:20:18;;;;;;;22.13;4.82;;;;;;;19.56;59.68;100220.22;6169411;23;20002;-91
2023/07/02 06:22:43;;;;;;;18.02;6.05;;;;;;;20.51;55.50;100234.25;6273789;22;20033;-91
2023/07/02 06:25:08;;;;;;;13.20;4.38;;;;;;;21.50;52.64;100227.44;6167148;23;20002;-92
2023/07/02 06:27:34;;;;;;;17.02;5.25;;;;;;;21.92;50.83;100230.84;6269653;22;20006;-93
2023/07/02 06:29:59;;;;;;;15.77;4.65;;;;;;;22.35;50.40;100239.31;6167351;23;20013;-93
2023/07/02 06:32:24;;;;;;;15.63;5.60;;;;;;;22.75;49.06;100248.88;6260931;22;20009;-92
2023/07/02 06:34:50;;;;;;;15.35;4.88;;;;;;;23.38;47.37;100241.75;6151780;23;20002;-92
2023/07/02 06:37:15;;;;;;;17.75;6.07;;;;;;;23.78;45.82;100234.53;6151771;23;20447;-94
2023/07/02 06:39:40;;;;;;;12.13;4.78;;;;;;;24.66;44.50;100240.03;6253329;22;20005;-94
2023/07/02 06:42:06;;;;;;;15.85;4.25;;;;;;;23.42;45.78;100235.13;6254131;22;20155;-91
2023/07/02 06:44:31;;;;;;;15.25;5.15;;;;;;;21.34;51.62;100230.06;6254318;22;20008;-91
2023/07/02 06:46:57;;;;;;;13.60;4.85;;;;;;;22.29;49.28;100240.84;6151752;23;20452;-91
2023/07/02 06:49:22;;;;;;;12.45;4.97;;;;;;;19.39;55.04;100232.34;6150952;23;20006;-93
2023/07/02 06:51:48;;;;;;;14.35;4.53;;;;;;;18.71;59.04;100240.59;6255716;22;20088;-93
2023/07/02 06:54:13;;;;;;;14.32;4.78;;;;;;;17.64;61.43;100250.50;6253180;22;20059;-91
2023/07/02 06:56:38;;;;;;;15.85;4.40;;;;;;;17.21;61.57;100256.94;6152786;23;20443;-96
2023/07/02 06:59:04;;;;;;;16.27;4.88;;;;;;;16.67;63.76;100246.75;6259291;22;20012;-96
2023/07/02 07:01:29;;;;;;;14.43;4.95;;;;;;;16.65;63.65;100246.09;6260600;22;20006;-96
2023/07/02 07:03:55;;;;;;;13.10;4.35;;;;;;;16.82;63.83;100251.63;6260046;22;20033;-96
2023/07/02 07:06:20;;;;;;;13.07;4.65;;;;;;;17.35;62.69;100251.31;6257719;22;20401;-95
2023/07/02 07:08:46;;;;;;;10.43;3.85;;;;;;;18.00;60.65;100245.56;6265413;22;20004;-96
2023/07/02 07:11:12;;;;;;;12.85;5.00;;;;;;;17.73;61.89;100244.47;6261402;22;20043;-96
2023/07/02 07:13:37;;;;;;;16.92;4.35;;;;;;;18.24;58.81;100243.28;6257265;22;20430;-96
2023/07/02 07:16:03;;;;;;;17.92;4.57;;;;;;;18.27;58.12;100248.22;6256518;22;20011;-96
2023/07/02 07:18:29;;;;;;;14.15;4.07;;;;;;;18.20;58.28;100246.31;6255735;22;20032;-95
2023/07/02 07:20:55;;;;;;;14.45;4.13;;;;;;;19.49;53.37;100252.38;6254982;22;20001;-91
2023/07/02 07:23:20;;;;;;;13.18;4.07;;;;;;;20.93;49.48;100251.78;6151526;23;20346;-89
2023/07/02 07:25:46;;;;;;;16.10;4.28;;;;;;;21.15;48.79;100258.22;6153678;23;20010;-96
2023/07/02 07:28:15;;;;;;;11.40;3.65;;;;;;;20.86;48.65;100268.34;6256440;22;20006;-95
2023/07/02 07:30:41;;;;;;;18.30;4.75;;;;;;;18.72;53.31;100263.16;6255271;22;20047;-95
2023/07/02 07:33:07;;;;;;;15.13;4.28;;;;;;;20.35;50.42;100263.00;6256139;22;20001;-96
2023/07/02 07:35:32;;;;;;;11.18;4.10;;;;;;;21.17;49.03;100271.22;6256095;22;20036;-96
2023/07/02 07:37:57;;;;;;;15.57;4.80;;;;;;;21.76;46.78;100269.31;6256872;22;20008;-96
2023/07/02 07:40:23;;;;;;;13.18;4.03;;;;;;;22.02;46.25;100258.59;6152723;23;20001;-96
2023/07/02 07:42:48;;;;;;;13.57;3.60;;;;;;;23.19;43.48;100265.91;6258179;22;20058;-96
2023/07/02 07:45:14;;;;;;;12.00;3.45;;;;;;;23.54;41.67;100266.34;6262989;22;20006;-96
2023/07/02 07:47:40;;;;;;;14.75;3.92;;;;;;;24.22;40.33;100268.03;6263946;22;20059;-96
2023/07/02 07:50:10;;;;;;;8.43;3.03;;;;;;;23.57;40.78;100263.34;6260896;22;20001;-96
2023/07/02 07:52:41;;;;;;;10.05;3.65;;;;;;;24.29;40.65;100261.03;6238558;22;20018;-96
2023/07/02 07:55:07;;;;;;;10.25;3.20;;;;;;;24.75;37.88;100260.84;6267760;22;19993;-96
2023/07/02 07:57:35;;;;;;;14.57;3.50;;;;;;;24.06;38.92;100268.19;6263020;22;20033;-94
2023/07/02 08:00:12;;;;;;;10.68;3.30;;;;;;;24.66;38.51;100264.59;6269117;22;20036;-96
2023/07/02 08:02:38;;;;;;;10.13;2.80;;;;;;;24.81;39.28;100271.66;6285709;22;20009;-95
2023/07/02 08:05:04;;;;;;;13.57;4.78;;;;;;;24.70;38.61;100281.69;6260694;22;20013;-96
2023/07/02 08:07:34;;;;;;;10.63;3.33;;;;;;;25.25;38.11;100276.03;6153468;23;20001;-96
2023/07/02 08:10:02;;;;;;;8.35;3.00;;;;;;;24.78;37.67;100260.47;6256903;22;19997;-96
2023/07/02 08:12:29;;;;;;;8.20;2.80;;;;;;;24.56;37.51;100264.88;6253904;22;20420;-95
2023/07/02 08:14:55;;;;;;;13.32;3.10;;;;;;;24.98;36.73;100267.78;6254380;22;20008;-94
2023/07/02 08:17:20;;;;;;;8.82;3.10;;;;;;;25.45;36.51;100268.28;6253044;22;20077;-93
2023/07/02 08:19:45;;;;;;;10.48;3.35;;;;;;;25.80;36.69;100266.53;6253264;22;20443;-95
2023/07/02 08:22:11;;;;;;;8.75;3.13;;;;;;;24.49;38.13;100268.44;6253842;22;20002;-95
2023/07/02 08:24:37;;;;;;;9.55;3.47;;;;;;;24.74;38.07;100266.31;6253141;22;20009;-94
2023/07/02 08:27:02;;;;;;;9.73;2.53;;;;;;;24.11;36.92;100269.28;6253331;22;20314;-93
2023/07/02 08:29:30;;;;;;;7.50;2.67;;;;;;;22.54;39.57;100259.16;6150274;22;20451;-95
2023/07/02 08:31:56;;;;;;;9.82;2.92;;;;;;;23.15;40.17;100257.56;6150989;23;20019;-95
2023/07/02 08:34:21;;;;;;;8.75;2.95;;;;;;;23.02;39.55;100252.88;6253782;22;20031;-95
2023/07/02 08:36:47;;;;;;;11.10;2.78;;;;;;;22.25;40.34;100257.13;6253910;22;20005;-94
2023/07/02 08:39:12;;;;;;;8.00;2.45;;;;;;;22.56;40.33;100249.28;6253482;22;20012;-94
2023/07/02 08:41:48;;;;;;;7.53;2.38;;;;;;;20.77;41.55;100259.59;6252610;22;20002;-94
2023/07/02 08:44:14;;;;;;;7.88;2.50;;;;;;;20.33;43.46;100251.84;6252746;22;20446;-93
2023/07/02 08:46:41;;;;;;;9.80;2.10;;;;;;;20.49;44.16;100248.50;6253847;22;20016;-94
2023/07/02 08:49:10;;;;;;;8.40;2.47;;;;;;;20.61;43.33;100254.31;6253123;22;20094;-94
2023/07/02 08:51:36;;;;;;;8.57;2.42;;;;;;;20.73;42.04;100245.19;6150276;23;20309;-94
2023/07/02 08:54:02;;;;;;;8.25;2.28;;;;;;;20.73;41.59;100250.44;6253335;22;20006;-94
2023/07/02 08:56:28;;;;;;;7.32;2.45;;;;;;;20.38;42.57;100254.00;6253601;22;20071;-94
2023/07/02 08:58:54;;;;;;;14.23;2.95;;;;;;;20.33;42.19;100251.03;6253980;22;20096;-93
2023/07/02 09:01:19;;;;;;;10.50;2.85;;;;;;;20.34;43.71;100261.38;6253469;22;20045;-95
2023/07/02 09:03:45;;;;;;;15.88;2.95;;;;;;;20.47;43.77;100261.75;6253043;22;20495;-94
2023/07/02 09:06:12;;;;;;;9.27;2.70;;;;;;;20.29;45.21;100259.22;6252837;22;20010;-95
2023/07/02 09:08:38;;;;;;;13.48;2.40;;;;;;;20.45;45.19;100258.44;6252693;22;20006;-94
2023/07/02 09:11:10;;;;;;;9.32;2.42;;;;;;;20.15;47.06;100257.16;6150514;22;20001;-93
2023/07/02 09:13:43;;;;;;;9.50;2.67;;;;;;;19.67;47.62;100259.25;6252920;22;20328;-93
2023/07/02 09:16:22;;;;;;;12.63;3.03;;;;;;;19.05;48.64;100253.13;6252419;22;20006;-94
2023/07/02 09:19:05;;;;;;;13.57;3.42;;;;;;;18.59;48.63;100263.50;6252694;22;20001;-93
2023/07/02 09:21:44;;;;;;;8.88;3.05;;;;;;;19.00;47.93;100256.16;6253108;22;20414;-93
2023/07/02 09:24:20;;;;;;;11.50;2.88;;;;;;;18.83;49.45;100258.75;6150253;23;20012;-93
2023/07/02 09:26:53;;;;;;;11.27;3.10;;;;;;;18.92;50.32;100255.25;6253384;22;20233;-94
2023/07/02 09:29:26;;;;;;;12.20;2.58;;;;;;;19.19;49.58;100255.22;6253281;22;20033;-91
2023/07/02 09:31:52;;;;;;;11.55;2.70;;;;;;;18.89;48.77;100248.50;6149316;23;20511;-91
2023/07/02 09:34:18;;;;;;;13.13;3.30;;;;;;;19.24;49.16;100257.41;6251657;22;20093;-92
2023/07/02 09:36:44;;;;;;;10.00;2.85;;;;;;;19.81;47.25;100250.03;6252542;22;20041;-92
2023/07/02 09:39:19;;;;;;;11.43;2.70;;;;;;;19.41;47.66;100245.25;6150112;23;20006;-92
2023/07/02 09:41:45;;;;;;;8.70;2.58;;;;;;;19.56;49.06;100250.81;6149249;22;20439;-93
2023/07/02 09:44:12;;;;;;;11.50;2.60;;;;;;;19.55;48.92;100244.72;6252039;22;20028;-91
2023/07/02 09:46:45;;;;;;;11.95;2.67;;;;;;;19.40;47.25;100247.06;6251977;22;20005;-93
2023/07/02 09:49:14;;;;;;;12.75;2.60;;;;;;;18.45;46.71;100255.31;6149094;22;20328;-93
2023/07/02 09:51:42;;;;;;;7.78;2.55;;;;;;;18.60;47.44;100259.09;6149360;23;20013;-92
2023/07/02 09:54:07;;;;;;;9.38;3.30;;;;;;;18.70;46.89;100252.00;6149346;23;20009;-90
2023/07/02 09:56:32;;;;;;;13.27;3.25;;;;;;;18.93;47.07;100255.09;6149055;23;20051;-93
2023/07/02 09:58:58;;;;;;;17.45;3.00;;;;;;;19.48;47.35;100254.16;6251308;22;20005;-92
2023/07/02 10:01:24;;;;;;;11.82;2.92;;;;;;;20.04;46.55;100254.78;6149181;22;20054;-94
2023/07/02 10:03:49;;;;;;;17.27;3.30;;;;;;;20.08;46.20;100250.88;6252504;22;20006;-92
2023/07/02 10:06:14;;;;;;;13.57;3.60;;;;;;;20.43;45.86;100249.91;6149300;23;20005;-95
2023/07/02 10:08:40;;;;;;;14.68;3.42;;;;;;;19.85;47.37;100256.63;6252311;22;20394;-95
2023/07/02 10:11:10;;;;;;;14.95;3.70;;;;;;;19.37;48.65;100247.38;6252904;22;20006;-94
2023/07/02 10:13:36;;;;;;;13.85;4.57;;;;;;;19.08;48.91;100255.44;6149973;22;20437;-94
2023/07/02 10:16:05;;;;;;;17.67;3.80;;;;;;;19.11;48.51;100252.50;6149790;23;20006;-94
2023/07/02 10:18:30;;;;;;;18.55;4.57;;;;;;;18.86;48.92;100248.00;6253032;22;20363;-95
2023/07/02 10:20:56;;;;;;;14.52;3.38;;;;;;;18.60;49.61;100253.84;6254633;22;20148;-95
2023/07/02 10:23:35;;;;;;;14.38;3.50;;;;;;;18.87;50.35;100253.06;6255369;22;20348;-96
2023/07/02 10:26:15;;;;;;;12.70;2.90;;;;;;;18.94;49.01;100253.31;6254053;22;20005;-94
2023/07/02 10:28:40;;;;;;;16.02;3.47;;;;;;;18.87;48.27;100250.44;6254371;22;19998;-96
2023/07/02 10:31:20;;;;;;;10.57;3.10;;;;;;;18.77;48.27;100249.69;6253886;22;20009;-96
2023/07/02 10:33:47;;;;;;;14.18;3.30;;;;;;;18.81;48.01;100267.56;6255031;22;20005;-96
2023/07/02 10:36:26;;;;;;;12.35;2.38;;;;;;;19.08;49.50;100273.75;6255326;22;20427;-95
2023/07/02 10:39:18;;;;;;;13.70;3.80;;;;;;;18.75;47.13;100256.81;6261104;22;19997;-95
2023/07/02 10:41:43;;;;;;;12.23;3.20;;;;;;;18.78;47.99;100246.94;6255673;22;20009;-94
2023/07/02 10:44:09;;;;;;;11.52;2.92;;;;;;;19.07;48.34;100245.94;6253894;22;20059;-94
2023/07/02 10:46:51;;;;;;;13.05;3.80;;;;;;;19.52;47.69;100255.50;6254397;22;20074;-94
2023/07/02 10:49:18;;;;;;;10.85;2.97;;;;;;;19.08;47.58;100259.84;6253846;22;20040;-95
2023/07/02 10:51:43;;;;;;;12.75;3.08;;;;;;;19.25;47.18;100259.84;6253972;22;20017;-95
2023/07/02 10:54:09;;;;;;;13.10;2.85;;;;;;;19.18;47.86;100258.78;6254058;22;20001;-94
2023/07/02 10:56:35;;;;;;;10.32;2.35;;;;;;;19.09;47.05;100259.69;6254098;22;20097;-94
2023/07/02 10:59:00;;;;;;;12.98;2.95;;;;;;;18.81;47.29;100258.91;6253510;22;20446;-94
2023/07/02 11:01:28;;;;;;;9.95;2.50;;;;;;;18.65;46.83;100256.84;6253618;22;20081;-95
2023/07/02 11:04:02;;;;;;;13.50;2.67;;;;;;;19.23;46.93;100259.16;6253815;22;20001;-95
2023/07/02 11:06:28;;;;;;;12.95;3.03;;;;;;;19.55;45.75;100257.00;6254675;22;20001;-95
2023/07/02 11:08:55;;;;;;;16.95;3.85;;;;;;;19.28;45.42;100257.91;6254990;22;20005;-95
2023/07/02 11:11:23;;;;;;;13.60;3.33;;;;;;;19.46;44.51;100256.94;6255567;22;20432;-96